Map

Track Data

SID SEASON NUMBER BASIN SUBBASIN NAME ISO_TIME NATURE LAT LON WMO_WIND WMO_PRES WMO_AGENCY TRACK_TYPE DIST2LAND LANDFALL IFLAG USA_AGENCY USA_ATCF_ID USA_LAT USA_LON USA_RECORD USA_STATUS USA_WIND USA_PRES USA_SSHS USA_R34_NE USA_R34_SE USA_R34_SW USA_R34_NW USA_R50_NE USA_R50_SE USA_R50_SW USA_R50_NW USA_R64_NE USA_R64_SE USA_R64_SW USA_R64_NW USA_POCI USA_ROCI USA_RMW USA_EYE TOKYO_LAT TOKYO_LON TOKYO_GRADE TOKYO_WIND TOKYO_PRES TOKYO_R50_DIR TOKYO_R50_LONG TOKYO_R50_SHORT TOKYO_R30_DIR TOKYO_R30_LONG TOKYO_R30_SHORT TOKYO_LAND CMA_LAT CMA_LON CMA_CAT CMA_WIND CMA_PRES HKO_LAT HKO_LON HKO_CAT HKO_WIND HKO_PRES NEWDELHI_LAT NEWDELHI_LON NEWDELHI_GRADE NEWDELHI_WIND NEWDELHI_PRES NEWDELHI_CI NEWDELHI_DP NEWDELHI_POCI REUNION_LAT REUNION_LON REUNION_TYPE REUNION_WIND REUNION_PRES REUNION_TNUM REUNION_CI REUNION_RMW REUNION_R34_NE REUNION_R34_SE REUNION_R34_SW REUNION_R34_NW REUNION_R50_NE REUNION_R50_SE REUNION_R50_SW REUNION_R50_NW REUNION_R64_NE REUNION_R64_SE REUNION_R64_SW REUNION_R64_NW BOM_LAT BOM_LON BOM_TYPE BOM_WIND BOM_PRES BOM_TNUM BOM_CI BOM_RMW BOM_R34_NE BOM_R34_SE BOM_R34_SW BOM_R34_NW BOM_R50_NE BOM_R50_SE BOM_R50_SW BOM_R50_NW BOM_R64_NE BOM_R64_SE BOM_R64_SW BOM_R64_NW BOM_ROCI BOM_POCI BOM_EYE BOM_POS_METHOD BOM_PRES_METHOD NADI_LAT NADI_LON NADI_CAT NADI_WIND NADI_PRES WELLINGTON_LAT WELLINGTON_LON WELLINGTON_WIND WELLINGTON_PRES DS824_LAT DS824_LON DS824_STAGE DS824_WIND DS824_PRES TD9636_LAT TD9636_LON TD9636_STAGE TD9636_WIND TD9636_PRES TD9635_LAT TD9635_LON TD9635_WIND TD9635_PRES TD9635_ROCI NEUMANN_LAT NEUMANN_LON NEUMANN_CLASS NEUMANN_WIND NEUMANN_PRES MLC_LAT MLC_LON MLC_CLASS MLC_WIND MLC_PRES USA_GUST BOM_GUST BOM_GUST_PER REUNION_GUST REUNION_GUST_PER USA_SEAHGT USA_SEARAD_NE USA_SEARAD_SE USA_SEARAD_SW USA_SEARAD_NW STORM_SPEED STORM_DIR
1996240N22168 1996 74 WP MM RICK 1996-08-27 00:00:00 NR 21.5000 168.000 main 3065 3046 O_____________ jtwc_wp WP221996 21.5000 168.000 25 -1 9 14
1996240N22168 1996 74 WP MM RICK 1996-08-27 03:00:00 NR 21.9200 168.115 main 3046 3035 P_____________ WP221996 21.9200 168.115 27 -1 9 19
1996240N22168 1996 74 WP MM RICK 1996-08-27 06:00:00 NR 22.3000 168.300 main 3037 3030 O_____________ jtwc_wp WP221996 22.3000 168.300 30 -1 8 34
1996240N22168 1996 74 WP MM RICK 1996-08-27 09:00:00 NR 22.6025 168.605 main 3042 3042 P_____________ WP221996 22.6025 168.605 32 -1 8 52
1996240N22168 1996 74 WP MM RICK 1996-08-27 12:00:00 NR 22.8000 169.000 main 3063 3063 O_____________ jtwc_wp WP221996 22.8000 169.000 35 0 8 70
1996240N22168 1996 74 WP MM RICK 1996-08-27 15:00:00 NR 22.8800 169.435 main 3090 3090 P_____________ WP221996 22.8800 169.435 35 0 8 83
1996240N22168 1996 74 WP MM RICK 1996-08-27 18:00:00 NR 22.9000 169.900 main 3108 3067 O_____________ jtwc_wp WP221996 22.9000 169.900 35 0 8 87
1996240N22168 1996 74 WP MM RICK 1996-08-27 21:00:00 NR 22.9274 170.350 main 3057 3016 P_____________ WP221996 22.9274 170.350 35 0 8 83
1996240N22168 1996 74 WP MM RICK 1996-08-28 00:00:00 NR 23.0000 170.800 main 3016 2974 O_____________ jtwc_wp WP221996 23.0000 170.800 35 0 9 74
1996240N22168 1996 74 WP MM RICK 1996-08-28 03:00:00 NR 23.1624 171.250 main 2963 2921 P_____________ WP221996 23.1624 171.250 32 -1 9 64
1996240N22168 1996 74 WP MM RICK 1996-08-28 06:00:00 NR 23.4000 171.700 main 2921 2879 O_____________ jtwc_wp WP221996 23.4000 171.700 30 -1 10 58
1996240N22168 1996 74 WP MM RICK 1996-08-28 09:00:00 NR 23.6699 172.150 main 2869 2828 P_____________ WP221996 23.6699 172.150 30 -1 10 54
1996240N22168 1996 74 WP MM RICK 1996-08-28 12:00:00 NR 24.0000 172.600 main 2828 2777 O_____________ jtwc_wp WP221996 24.0000 172.600 30 -1 11 51
1996240N22168 1996 74 WP MM RICK 1996-08-28 15:00:00 NR 24.3626 173.087 main 2776 2736 P_____________ WP221996 24.3626 173.087 30 -1 11 46
1996240N22168 1996 74 WP MM RICK 1996-08-28 18:00:00 NR 24.8000 173.500 main 2736 2708 O_____________ jtwc_wp WP221996 24.8000 173.500 30 -1 11 33
1996240N22168 1996 74 WP MM RICK 1996-08-28 21:00:00 NR 25.3198 173.775 main 2708 2699 P_____________ WP221996 25.3198 173.775 30 -1 12 18
1996240N22168 1996 74 WP MM RICK 1996-08-29 00:00:00 NR 25.9000 173.900 main 2701 2701 O_____________ jtwc_wp WP221996 25.9000 173.900 30 -1 12 5
1996240N22168 1996 74 WP MM RICK 1996-08-29 03:00:00 NR 26.4925 173.895 main 2706 2706 P_____________ WP221996 26.4925 173.895 30 -1 12 356
1996240N22168 1996 74 WP MM RICK 1996-08-29 06:00:00 NR 27.1000 173.800 main 2723 2723 O_____________ jtwc_wp WP221996 27.1000 173.800 30 -1 12 353
1996240N22168 1996 74 WP MM RICK 1996-08-29 09:00:00 NR 27.7075 173.722 main 2740 2740 P_____________ WP221996 27.7075 173.722 30 -1 12 352
1996240N22168 1996 74 WP MM RICK 1996-08-29 12:00:00 NR 28.3000 173.600 main 2759 2759 O_____________ jtwc_wp WP221996 28.3000 173.600 30 -1 12 346
1996240N22168 1996 74 WP MM RICK 1996-08-29 15:00:00 NR 28.8726 173.400 main 2767 2718 P_____________ WP221996 28.8726 173.400 30 -1 12 347
1996240N22168 1996 74 WP MM RICK 1996-08-29 18:00:00 NR 29.4800 173.280 main 2709 2669 O__O__________ jtwc_wp WP221996 29.4000 173.200 30 -1 29.8000 173.600 TD 25 1008 11 351
1996240N22168 1996 74 WP MM RICK 1996-08-29 21:00:00 NR 29.9541 173.195 main 2661 2629 P__P__________ WP221996 29.9024 173.092 32 -1 30.0576 173.400 TD 27 1007 8 348
1996240N22168 1996 74 WP MM RICK 1996-08-30 00:00:00 NR 30.3000 173.086 main 2629 2600 O__O__________ jtwc_wp WP221996 30.3000 173.000 35 0 30.3000 173.200 TD 30 1006 6 338
1996240N22168 1996 74 WP MM RICK 1996-08-30 03:00:00 NR 30.5300 172.929 main 2600 2577 P__P__________ WP221996 30.5450 172.857 35 0 30.5150 173.000 TD 30 1006 5 324
1996240N22168 1996 74 WP MM RICK 1996-08-30 06:00:00 NR 30.7000 172.750 main 2577 2548 O__O__________ jtwc_wp WP221996 30.7000 172.700 35 0 30.7000 172.800 TD 30 1006 5 317
1996240N22168 1996 74 WP MM RICK 1996-08-30 09:00:00 NR 30.8613 172.564 main 2548 2527 P__P__________ WP221996 30.8650 172.535 35 0 30.8575 172.592 TD 30 1006 4 315
1996240N22168 1996 74 WP MM RICK 1996-08-30 12:00:00 NR 31.0000 172.400 main 2527 2512 O__O__________ jtwc_wp WP221996 31.0000 172.400 35 0 31.0000 172.400 TD 30 1006 4 317
1996240N22168 1996 74 WP MM RICK 1996-08-30 15:00:00 NR 31.1250 172.274 main 2512 2497 P__P__________ WP221996 31.1000 172.327 32 -1 31.1500 172.220 TD 30 1006 3 325
1996240N22168 1996 74 WP MM RICK 1996-08-30 18:00:00 NR 31.2500 172.200 main 2489 2481 O__O__________ jtwc_wp WP221996 31.2000 172.300 30 -1 31.3000 172.100 TD 30 1006 3 341
1996240N22168 1996 74 WP MM RICK 1996-08-30 21:00:00 NR 31.3925 172.166 main 2481 2473 P__P__________ WP221996 31.3350 172.278 30 -1 31.4499 172.055 TD 27 1007 3 0
1996240N22168 1996 74 WP MM RICK 1996-08-31 00:00:00 NR 31.5500 172.200 main 2464 2456 O__O__________ jtwc_wp WP221996 31.5000 172.300 30 -1 31.6000 172.100 TD 25 1008 3 17
1996240N22168 1996 74 WP MM RICK 1996-08-31 03:00:00 NR 31.7249 172.280 main 2462 2447 P__P__________ WP221996 31.6999 172.355 30 -1 31.7499 172.205 TD 25 1008 4 31
1996240N22168 1996 74 WP MM RICK 1996-08-31 06:00:00 NR 31.9000 172.450 main 2451 2441 O__O__________ jtwc_wp WP221996 31.9000 172.500 30 -1 31.9000 172.400 TD 25 1008 5 48
1996240N22168 1996 74 WP MM RICK 1996-08-31 09:00:00 NR 32.0537 172.705 main 2441 2440 P__P__________ WP221996 32.0574 172.748 30 -1 32.0499 172.663 TD 25 1008 6 60
1996240N22168 1996 74 WP MM RICK 1996-08-31 12:00:00 NR 32.2000 173.057 main 2450 2445 O__O__________ jtwc_wp WP221996 32.2000 173.100 30 -1 32.2000 173.000 TD 25 1008 7 66
1996240N22168 1996 74 WP MM RICK 1996-08-31 15:00:00 NR 32.3449 173.461 main 2459 2450 P__P__________ WP221996 32.3422 173.498 30 -1 32.3503 173.387 TD 25 1008 8 69
1996240N22168 1996 74 WP MM RICK 1996-08-31 18:00:00 NR 32.5000 173.960 main 2464 2464 O__O__________ jtwc_wp WP221996 32.5000 174.000 30 -1 32.5000 173.800 TD 25 1008 10 70
1996240N22168 1996 74 WP MM RICK 1996-08-31 21:00:00 NR 32.6923 174.605 main 2475 2475 P_____________ WP221996 32.6923 174.605 30 -1 TD 12 70
1996240N22168 1996 74 WP MM RICK 1996-09-01 00:00:00 NR 32.9000 175.300 main 2492 2492 O_____________ jtwc_wp WP221996 32.9000 175.300 30 -1 12 71
1996240N22168 1996 74 WP MM RICK 1996-09-01 03:00:00 NR 33.0994 176.013 main 2507 2456 P_____________ WP221996 33.0994 176.013 27 -1 13 72
1996240N22168 1996 74 WP MM RICK 1996-09-01 06:00:00 NR 33.3000 176.800 main 2456 2407 O_____________ jtwc_wp WP221996 33.3000 176.800 25 -1 14 75
1996240N22168 1996 74 WP MM RICK 1996-09-01 09:00:00 NR 33.4691 177.649 main 2407 2356 P_____________ WP221996 33.4691 177.649 25 -1 16 75
1996240N22168 1996 74 WP MM RICK 1996-09-01 12:00:00 NR 33.7000 178.600 main 2352 2289 O_____________ jtwc_wp WP221996 33.7000 178.600 25 -1 18 71
1996240N22168 1996 74 WP MM RICK 1996-09-01 15:00:00 NR 34.0550 179.678 main 2275 2203 P_____________ WP221996 34.0550 179.678 27 -1 20 66
1996240N22168 1996 74 EP CP RICK 1996-09-01 18:00:00 NR 34.5000 180.800 main 2200 2119 O_____________ jtwc_wp WP221996 34.5000 -179.200 30 -1 20 63
1996240N22168 1996 74 EP CP RICK 1996-09-01 21:00:00 NR 34.9839 181.858 main 2116 2040 P_____________ WP221996 34.9839 -178.142 30 -1 20 60
1996240N22168 1996 74 EP CP RICK 1996-09-02 00:00:00 NR 35.5000 182.900 main 2037 1971 O_____________ jtwc_wp WP221996 35.5000 -177.100 30 -1 20 60
1996240N22168 1996 74 EP CP RICK 1996-09-02 03:00:00 NR 35.9770 183.967 main 1958 1885 P_____________ WP221996 35.9770 -176.033 30 -1 20 60
1996240N22168 1996 74 EP CP RICK 1996-09-02 06:00:00 NR 36.5000 185.000 main 1883 1801 O_____________ jtwc_wp WP221996 36.5000 -175.000 30 -1 20 55
1996240N22168 1996 74 EP CP RICK 1996-09-02 09:00:00 NR 37.1191 185.974 main 1799 1710 P_____________ WP221996 37.1191 -174.026 30 -1 20 49
1996240N22168 1996 74 EP CP RICK 1996-09-02 12:00:00 NR 37.8000 186.900 main 1708 1630 O_____________ jtwc_wp WP221996 37.8000 -173.100 30 -1 20 47
1996240N22168 1996 74 EP CP RICK 1996-09-02 15:00:00 NR 38.4843 187.817 main 1619 1532 P_____________ WP221996 38.4843 -172.183 30 -1 20 45
1996240N22168 1996 74 EP CP RICK 1996-09-02 18:00:00 NR 39.2000 188.700 main 1532 1449 O_____________ jtwc_wp WP221996 39.2000 -171.300 30 -1 20 43
1996240N22168 1996 74 EP CP RICK 1996-09-02 21:00:00 NR 39.9437 189.554 main 1448 1356 P_____________ WP221996 39.9437 -170.446 30 -1 20 41
1996240N22168 1996 74 EP CP RICK 1996-09-03 00:00:00 NR 40.7000 190.400 main 1356 O_____________ jtwc_wp WP221996 40.7000 -169.600 30 -1 20 40

Digital Typhoon Data and Search

About IBTrACS Database

This database is a web-friendly format of International Best Track Archive for Climate Stewardship (IBTrACS), a global best track data archive curated by NOAA dating back to 1842.

Updated: 2021-11-26